sensor_id;sensor_type;location;lat;lon;timestamp;P1;durP1;ratioP1;P2;durP2;ratioP2
39880;SDS011;25554;44.954;10.068;2023-06-22T00:00:01;14.90;;;11.77;;
39880;SDS011;25554;44.954;10.068;2023-06-22T00:02:37;12.37;;;10.60;;
39880;SDS011;25554;44.954;10.068;2023-06-22T00:05:07;14.70;;;10.68;;
39880;SDS011;25554;44.954;10.068;2023-06-22T00:07:33;14.45;;;10.27;;
39880;SDS011;25554;44.954;10.068;2023-06-22T00:10:00;12.98;;;10.38;;
39880;SDS011;25554;44.954;10.068;2023-06-22T00:12:26;15.55;;;11.50;;
39880;SDS011;25554;44.954;10.068;2023-06-22T00:14:55;10.38;;;9.00;;
39880;SDS011;25554;44.954;10.068;2023-06-22T00:17:22;16.27;;;9.93;;
39880;SDS011;25554;44.954;10.068;2023-06-22T00:19:48;15.20;;;10.07;;
39880;SDS011;25554;44.954;10.068;2023-06-22T00:22:19;14.38;;;10.00;;
39880;SDS011;25554;44.954;10.068;2023-06-22T00:24:55;14.25;;;8.60;;
39880;SDS011;25554;44.954;10.068;2023-06-22T00:27:24;11.77;;;8.75;;
39880;SDS011;25554;44.954;10.068;2023-06-22T00:29:51;17.35;;;10.25;;
39880;SDS011;25554;44.954;10.068;2023-06-22T00:32:17;12.75;;;9.15;;
39880;SDS011;25554;44.954;10.068;2023-06-22T00:34:47;15.35;;;9.80;;
39880;SDS011;25554;44.954;10.068;2023-06-22T00:37:13;17.65;;;10.52;;
39880;SDS011;25554;44.954;10.068;2023-06-22T00:39:40;11.90;;;9.20;;
39880;SDS011;25554;44.954;10.068;2023-06-22T00:42:10;12.75;;;9.07;;
39880;SDS011;25554;44.954;10.068;2023-06-22T00:44:37;15.32;;;9.38;;
39880;SDS011;25554;44.954;10.068;2023-06-22T00:47:04;13.40;;;10.02;;
39880;SDS011;25554;44.954;10.068;2023-06-22T00:49:38;15.93;;;9.75;;
39880;SDS011;25554;44.954;10.068;2023-06-22T00:52:05;12.90;;;10.57;;
39880;SDS011;25554;44.954;10.068;2023-06-22T00:54:37;17.27;;;10.38;;
39880;SDS011;25554;44.954;10.068;2023-06-22T00:57:09;13.40;;;9.63;;
39880;SDS011;25554;44.954;10.068;2023-06-22T00:59:37;17.75;;;11.30;;
39880;SDS011;25554;44.954;10.068;2023-06-22T01:02:04;19.75;;;10.07;;
39880;SDS011;25554;44.954;10.068;2023-06-22T01:04:35;17.45;;;10.73;;
39880;SDS011;25554;44.954;10.068;2023-06-22T01:09:31;13.32;;;10.02;;
39880;SDS011;25554;44.954;10.068;2023-06-22T01:12:02;19.77;;;12.25;;
39880;SDS011;25554;44.954;10.068;2023-06-22T01:14:41;15.75;;;12.93;;
39880;SDS011;25554;44.954;10.068;2023-06-22T01:17:29;14.90;;;13.32;;
39880;SDS011;25554;44.954;10.068;2023-06-22T01:19:59;18.02;;;14.63;;
39880;SDS011;25554;44.954;10.068;2023-06-22T01:22:31;20.77;;;14.88;;
39880;SDS011;25554;44.954;10.068;2023-06-22T01:25:12;20.30;;;15.02;;
39880;SDS011;25554;44.954;10.068;2023-06-22T01:30:52;15.52;;;13.40;;
39880;SDS011;25554;44.954;10.068;2023-06-22T01:33:29;14.98;;;12.00;;
39880;SDS011;25554;44.954;10.068;2023-06-22T01:36:01;16.88;;;14.00;;
39880;SDS011;25554;44.954;10.068;2023-06-22T01:38:29;19.98;;;14.32;;
39880;SDS011;25554;44.954;10.068;2023-06-22T01:40:57;16.77;;;14.07;;
39880;SDS011;25554;44.954;10.068;2023-06-22T01:43:25;17.75;;;14.85;;
39880;SDS011;25554;44.954;10.068;2023-06-22T01:45:55;15.57;;;12.93;;
39880;SDS011;25554;44.954;10.068;2023-06-22T01:48:22;19.95;;;13.60;;
39880;SDS011;25554;44.954;10.068;2023-06-22T01:50:51;14.85;;;12.30;;
39880;SDS011;25554;44.954;10.068;2023-06-22T01:53:22;16.83;;;13.85;;
39880;SDS011;25554;44.954;10.068;2023-06-22T01:55:51;15.05;;;12.73;;
39880;SDS011;25554;44.954;10.068;2023-06-22T01:58:25;18.17;;;14.50;;
39880;SDS011;25554;44.954;10.068;2023-06-22T02:03:38;21.40;;;13.82;;
39880;SDS011;25554;44.954;10.068;2023-06-22T02:06:23;17.00;;;14.40;;
39880;SDS011;25554;44.954;10.068;2023-06-22T02:08:57;19.13;;;13.82;;
39880;SDS011;25554;44.954;10.068;2023-06-22T02:11:26;15.10;;;13.50;;
39880;SDS011;25554;44.954;10.068;2023-06-22T02:13:55;18.80;;;12.95;;
39880;SDS011;25554;44.954;10.068;2023-06-22T02:16:23;15.60;;;11.93;;
39880;SDS011;25554;44.954;10.068;2023-06-22T02:18:51;16.30;;;12.75;;
39880;SDS011;25554;44.954;10.068;2023-06-22T02:21:18;18.95;;;12.20;;
39880;SDS011;25554;44.954;10.068;2023-06-22T02:23:46;14.95;;;13.40;;
39880;SDS011;25554;44.954;10.068;2023-06-22T02:26:13;19.50;;;13.30;;
39880;SDS011;25554;44.954;10.068;2023-06-22T02:28:40;13.77;;;12.10;;
39880;SDS011;25554;44.954;10.068;2023-06-22T02:31:06;15.40;;;12.95;;
39880;SDS011;25554;44.954;10.068;2023-06-22T02:33:33;13.85;;;12.27;;
39880;SDS011;25554;44.954;10.068;2023-06-22T02:35:59;14.15;;;12.18;;
39880;SDS011;25554;44.954;10.068;2023-06-22T02:38:31;17.58;;;12.55;;
39880;SDS011;25554;44.954;10.068;2023-06-22T02:41:02;15.98;;;12.90;;
39880;SDS011;25554;44.954;10.068;2023-06-22T02:43:28;15.20;;;12.68;;
39880;SDS011;25554;44.954;10.068;2023-06-22T02:45:55;19.75;;;14.20;;
39880;SDS011;25554;44.954;10.068;2023-06-22T02:48:25;15.77;;;13.90;;
39880;SDS011;25554;44.954;10.068;2023-06-22T02:50:54;22.20;;;15.15;;
39880;SDS011;25554;44.954;10.068;2023-06-22T02:53:21;31.13;;;14.50;;
39880;SDS011;25554;44.954;10.068;2023-06-22T02:55:48;22.02;;;14.55;;
39880;SDS011;25554;44.954;10.068;2023-06-22T02:58:15;16.52;;;12.23;;
39880;SDS011;25554;44.954;10.068;2023-06-22T03:00:42;18.05;;;12.52;;
39880;SDS011;25554;44.954;10.068;2023-06-22T03:03:09;16.13;;;12.48;;
39880;SDS011;25554;44.954;10.068;2023-06-22T03:05:36;14.70;;;12.10;;
39880;SDS011;25554;44.954;10.068;2023-06-22T03:08:03;63.40;;;17.77;;
39880;SDS011;25554;44.954;10.068;2023-06-22T03:10:32;25.77;;;13.18;;
39880;SDS011;25554;44.954;10.068;2023-06-22T03:12:59;16.73;;;13.00;;
39880;SDS011;25554;44.954;10.068;2023-06-22T03:15:26;18.17;;;12.73;;
39880;SDS011;25554;44.954;10.068;2023-06-22T03:17:55;13.35;;;11.60;;
39880;SDS011;25554;44.954;10.068;2023-06-22T03:20:23;18.70;;;13.20;;
39880;SDS011;25554;44.954;10.068;2023-06-22T03:22:50;22.65;;;13.52;;
39880;SDS011;25554;44.954;10.068;2023-06-22T03:25:20;16.08;;;12.77;;
39880;SDS011;25554;44.954;10.068;2023-06-22T03:27:48;16.38;;;12.95;;
39880;SDS011;25554;44.954;10.068;2023-06-22T03:30:15;21.45;;;13.43;;
39880;SDS011;25554;44.954;10.068;2023-06-22T03:32:41;22.15;;;13.00;;
39880;SDS011;25554;44.954;10.068;2023-06-22T03:35:09;38.60;;;14.80;;
39880;SDS011;25554;44.954;10.068;2023-06-22T03:37:38;28.67;;;13.43;;
39880;SDS011;25554;44.954;10.068;2023-06-22T03:40:05;19.85;;;14.73;;
39880;SDS011;25554;44.954;10.068;2023-06-22T03:42:34;26.45;;;15.77;;
39880;SDS011;25554;44.954;10.068;2023-06-22T03:45:02;28.02;;;17.60;;
39880;SDS011;25554;44.954;10.068;2023-06-22T03:47:29;26.65;;;16.23;;
39880;SDS011;25554;44.954;10.068;2023-06-22T03:49:57;29.20;;;18.50;;
39880;SDS011;25554;44.954;10.068;2023-06-22T03:52:24;27.95;;;16.77;;
39880;SDS011;25554;44.954;10.068;2023-06-22T03:54:51;27.25;;;18.15;;
39880;SDS011;25554;44.954;10.068;2023-06-22T03:57:20;35.78;;;17.65;;
39880;SDS011;25554;44.954;10.068;2023-06-22T03:59:46;22.52;;;18.98;;
39880;SDS011;25554;44.954;10.068;2023-06-22T04:02:13;20.63;;;17.20;;
39880;SDS011;25554;44.954;10.068;2023-06-22T04:04:42;25.63;;;19.48;;
39880;SDS011;25554;44.954;10.068;2023-06-22T04:07:09;22.42;;;18.77;;
39880;SDS011;25554;44.954;10.068;2023-06-22T04:09:35;25.77;;;20.15;;
39880;SDS011;25554;44.954;10.068;2023-06-22T04:12:04;27.20;;;21.00;;
39880;SDS011;25554;44.954;10.068;2023-06-22T04:14:31;23.38;;;20.00;;
39880;SDS011;25554;44.954;10.068;2023-06-22T04:16:58;24.90;;;19.52;;
39880;SDS011;25554;44.954;10.068;2023-06-22T04:19:25;33.53;;;21.30;;
39880;SDS011;25554;44.954;10.068;2023-06-22T04:21:54;27.55;;;19.15;;
39880;SDS011;25554;44.954;10.068;2023-06-22T04:24:24;24.83;;;18.65;;
39880;SDS011;25554;44.954;10.068;2023-06-22T04:26:50;28.88;;;18.90;;
39880;SDS011;25554;44.954;10.068;2023-06-22T04:29:20;33.40;;;17.65;;
39880;SDS011;25554;44.954;10.068;2023-06-22T04:31:54;25.63;;;16.98;;
39880;SDS011;25554;44.954;10.068;2023-06-22T04:34:23;23.58;;;16.63;;
39880;SDS011;25554;44.954;10.068;2023-06-22T04:36:51;21.48;;;15.35;;
39880;SDS011;25554;44.954;10.068;2023-06-22T04:39:18;19.92;;;14.23;;
39880;SDS011;25554;44.954;10.068;2023-06-22T04:41:45;22.95;;;15.18;;
39880;SDS011;25554;44.954;10.068;2023-06-22T04:44:12;16.27;;;12.57;;
39880;SDS011;25554;44.954;10.068;2023-06-22T04:46:50;20.45;;;15.10;;
39880;SDS011;25554;44.954;10.068;2023-06-22T04:49:26;27.92;;;13.40;;
39880;SDS011;25554;44.954;10.068;2023-06-22T04:52:02;17.88;;;12.63;;
39880;SDS011;25554;44.954;10.068;2023-06-22T04:54:30;15.05;;;12.63;;
39880;SDS011;25554;44.954;10.068;2023-06-22T04:57:00;19.98;;;12.68;;
39880;SDS011;25554;44.954;10.068;2023-06-22T04:59:28;15.73;;;11.45;;
39880;SDS011;25554;44.954;10.068;2023-06-22T05:01:59;17.05;;;11.15;;
39880;SDS011;25554;44.954;10.068;2023-06-22T05:04:27;12.43;;;10.00;;
39880;SDS011;25554;44.954;10.068;2023-06-22T05:06:57;14.85;;;10.57;;
39880;SDS011;25554;44.954;10.068;2023-06-22T05:09:27;11.27;;;9.40;;
39880;SDS011;25554;44.954;10.068;2023-06-22T05:11:53;14.48;;;9.63;;
39880;SDS011;25554;44.954;10.068;2023-06-22T05:14:20;12.25;;;9.55;;
39880;SDS011;25554;44.954;10.068;2023-06-22T05:16:46;13.70;;;10.05;;
39880;SDS011;25554;44.954;10.068;2023-06-22T05:19:13;13.50;;;9.32;;
39880;SDS011;25554;44.954;10.068;2023-06-22T05:21:39;21.67;;;10.65;;
39880;SDS011;25554;44.954;10.068;2023-06-22T05:24:09;11.82;;;8.95;;
39880;SDS011;25554;44.954;10.068;2023-06-22T05:26:35;16.77;;;10.50;;
39880;SDS011;25554;44.954;10.068;2023-06-22T05:29:02;17.48;;;9.48;;
39880;SDS011;25554;44.954;10.068;2023-06-22T05:31:29;25.65;;;11.95;;
39880;SDS011;25554;44.954;10.068;2023-06-22T05:33:56;18.73;;;9.93;;
39880;SDS011;25554;44.954;10.068;2023-06-22T05:36:22;17.25;;;10.20;;
39880;SDS011;25554;44.954;10.068;2023-06-22T05:38:51;12.88;;;9.77;;
39880;SDS011;25554;44.954;10.068;2023-06-22T05:41:18;11.13;;;9.55;;
39880;SDS011;25554;44.954;10.068;2023-06-22T05:43:45;15.90;;;9.73;;
39880;SDS011;25554;44.954;10.068;2023-06-22T05:46:11;13.25;;;9.65;;
39880;SDS011;25554;44.954;10.068;2023-06-22T05:48:38;13.27;;;10.55;;
39880;SDS011;25554;44.954;10.068;2023-06-22T05:51:05;15.30;;;10.63;;
39880;SDS011;25554;44.954;10.068;2023-06-22T05:53:31;17.20;;;10.40;;
39880;SDS011;25554;44.954;10.068;2023-06-22T05:55:58;15.65;;;9.50;;
39880;SDS011;25554;44.954;10.068;2023-06-22T05:58:24;15.02;;;9.85;;
39880;SDS011;25554;44.954;10.068;2023-06-22T06:00:51;15.23;;;11.20;;
39880;SDS011;25554;44.954;10.068;2023-06-22T06:03:17;15.77;;;10.18;;
39880;SDS011;25554;44.954;10.068;2023-06-22T06:05:44;15.80;;;9.90;;
39880;SDS011;25554;44.954;10.068;2023-06-22T06:08:11;13.88;;;9.38;;
39880;SDS011;25554;44.954;10.068;2023-06-22T06:10:38;15.40;;;10.63;;
39880;SDS011;25554;44.954;10.068;2023-06-22T06:13:05;12.80;;;8.90;;
39880;SDS011;25554;44.954;10.068;2023-06-22T06:15:31;14.75;;;9.40;;
39880;SDS011;25554;44.954;10.068;2023-06-22T06:17:58;13.98;;;9.05;;
39880;SDS011;25554;44.954;10.068;2023-06-22T06:20:27;12.45;;;10.10;;
39880;SDS011;25554;44.954;10.068;2023-06-22T06:23:06;14.48;;;9.38;;
39880;SDS011;25554;44.954;10.068;2023-06-22T06:25:43;12.63;;;9.45;;
39880;SDS011;25554;44.954;10.068;2023-06-22T06:28:09;13.48;;;8.05;;
39880;SDS011;25554;44.954;10.068;2023-06-22T06:30:36;14.80;;;8.63;;
39880;SDS011;25554;44.954;10.068;2023-06-22T06:33:03;13.23;;;9.70;;
39880;SDS011;25554;44.954;10.068;2023-06-22T06:35:34;10.98;;;9.43;;
39880;SDS011;25554;44.954;10.068;2023-06-22T06:38:01;13.77;;;8.85;;
39880;SDS011;25554;44.954;10.068;2023-06-22T06:40:27;18.65;;;9.20;;
39880;SDS011;25554;44.954;10.068;2023-06-22T06:42:54;13.23;;;8.60;;
39880;SDS011;25554;44.954;10.068;2023-06-22T06:45:22;18.88;;;11.57;;
39880;SDS011;25554;44.954;10.068;2023-06-22T06:47:50;13.02;;;9.23;;
39880;SDS011;25554;44.954;10.068;2023-06-22T06:50:18;14.50;;;9.95;;
39880;SDS011;25554;44.954;10.068;2023-06-22T06:52:44;12.90;;;9.07;;
39880;SDS011;25554;44.954;10.068;2023-06-22T06:55:11;20.40;;;11.30;;
39880;SDS011;25554;44.954;10.068;2023-06-22T06:57:39;13.63;;;9.07;;
39880;SDS011;25554;44.954;10.068;2023-06-22T07:00:07;14.35;;;9.77;;
39880;SDS011;25554;44.954;10.068;2023-06-22T07:02:38;16.40;;;9.18;;
39880;SDS011;25554;44.954;10.068;2023-06-22T07:05:11;11.38;;;8.43;;
39880;SDS011;25554;44.954;10.068;2023-06-22T07:07:38;15.43;;;8.68;;
39880;SDS011;25554;44.954;10.068;2023-06-22T07:10:05;12.52;;;8.27;;
39880;SDS011;25554;44.954;10.068;2023-06-22T07:12:32;12.98;;;7.15;;
39880;SDS011;25554;44.954;10.068;2023-06-22T07:15:05;15.70;;;8.48;;
39880;SDS011;25554;44.954;10.068;2023-06-22T07:17:35;16.35;;;10.98;;
39880;SDS011;25554;44.954;10.068;2023-06-22T07:20:03;16.45;;;10.07;;
39880;SDS011;25554;44.954;10.068;2023-06-22T07:22:37;20.23;;;9.85;;
39880;SDS011;25554;44.954;10.068;2023-06-22T07:25:08;17.40;;;9.48;;
39880;SDS011;25554;44.954;10.068;2023-06-22T07:27:36;10.70;;;8.20;;
39880;SDS011;25554;44.954;10.068;2023-06-22T07:30:04;18.77;;;8.27;;
39880;SDS011;25554;44.954;10.068;2023-06-22T07:32:30;16.48;;;8.10;;
39880;SDS011;25554;44.954;10.068;2023-06-22T07:34:57;15.10;;;8.05;;
39880;SDS011;25554;44.954;10.068;2023-06-22T07:37:23;10.52;;;7.72;;
39880;SDS011;25554;44.954;10.068;2023-06-22T07:39:50;15.93;;;6.68;;
39880;SDS011;25554;44.954;10.068;2023-06-22T07:42:19;10.00;;;6.72;;
39880;SDS011;25554;44.954;10.068;2023-06-22T07:44:45;13.80;;;6.43;;
39880;SDS011;25554;44.954;10.068;2023-06-22T07:47:12;10.98;;;7.40;;
39880;SDS011;25554;44.954;10.068;2023-06-22T07:49:38;7.70;;;6.45;;
39880;SDS011;25554;44.954;10.068;2023-06-22T07:52:05;15.65;;;6.50;;
39880;SDS011;25554;44.954;10.068;2023-06-22T07:54:32;16.50;;;7.10;;
39880;SDS011;25554;44.954;10.068;2023-06-22T07:56:58;11.85;;;7.25;;
39880;SDS011;25554;44.954;10.068;2023-06-22T07:59:25;19.52;;;7.57;;
39880;SDS011;25554;44.954;10.068;2023-06-22T08:01:51;18.95;;;9.40;;
39880;SDS011;25554;44.954;10.068;2023-06-22T08:04:18;13.23;;;7.32;;
39880;SDS011;25554;44.954;10.068;2023-06-22T08:06:45;10.82;;;6.90;;
39880;SDS011;25554;44.954;10.068;2023-06-22T08:09:11;11.75;;;6.88;;
39880;SDS011;25554;44.954;10.068;2023-06-22T08:11:38;10.63;;;7.55;;
39880;SDS011;25554;44.954;10.068;2023-06-22T08:14:04;19.92;;;7.50;;
39880;SDS011;25554;44.954;10.068;2023-06-22T08:16:31;16.83;;;7.38;;
39880;SDS011;25554;44.954;10.068;2023-06-22T08:18:57;11.07;;;7.32;;
39880;SDS011;25554;44.954;10.068;2023-06-22T08:21:24;16.23;;;7.10;;
39880;SDS011;25554;44.954;10.068;2023-06-22T08:23:51;15.27;;;7.32;;
39880;SDS011;25554;44.954;10.068;2023-06-22T08:26:17;17.63;;;7.97;;
39880;SDS011;25554;44.954;10.068;2023-06-22T08:28:44;15.48;;;7.63;;
39880;SDS011;25554;44.954;10.068;2023-06-22T08:31:10;13.05;;;6.80;;
39880;SDS011;25554;44.954;10.068;2023-06-22T08:33:39;13.98;;;7.20;;
39880;SDS011;25554;44.954;10.068;2023-06-22T08:36:06;37.83;;;25.10;;
39880;SDS011;25554;44.954;10.068;2023-06-22T08:38:33;14.07;;;8.70;;
39880;SDS011;25554;44.954;10.068;2023-06-22T08:41:00;11.32;;;7.28;;
39880;SDS011;25554;44.954;10.068;2023-06-22T08:43:27;12.18;;;7.47;;
39880;SDS011;25554;44.954;10.068;2023-06-22T08:45:53;11.45;;;7.75;;
39880;SDS011;25554;44.954;10.068;2023-06-22T08:48:20;10.52;;;7.88;;
39880;SDS011;25554;44.954;10.068;2023-06-22T08:50:46;11.98;;;7.47;;
39880;SDS011;25554;44.954;10.068;2023-06-22T08:53:13;9.73;;;7.47;;
39880;SDS011;25554;44.954;10.068;2023-06-22T08:55:39;15.73;;;7.78;;
39880;SDS011;25554;44.954;10.068;2023-06-22T08:58:06;15.45;;;8.88;;
39880;SDS011;25554;44.954;10.068;2023-06-22T09:00:33;15.35;;;7.82;;
39880;SDS011;25554;44.954;10.068;2023-06-22T09:03:00;15.27;;;6.95;;
39880;SDS011;25554;44.954;10.068;2023-06-22T09:05:27;14.50;;;8.20;;
39880;SDS011;25554;44.954;10.068;2023-06-22T09:07:54;16.20;;;7.10;;
39880;SDS011;25554;44.954;10.068;2023-06-22T09:10:20;12.15;;;6.95;;
39880;SDS011;25554;44.954;10.068;2023-06-22T09:12:47;10.07;;;6.50;;
39880;SDS011;25554;44.954;10.068;2023-06-22T09:15:13;11.02;;;7.03;;
39880;SDS011;25554;44.954;10.068;2023-06-22T09:17:40;14.63;;;6.97;;
39880;SDS011;25554;44.954;10.068;2023-06-22T09:20:07;15.43;;;7.03;;
39880;SDS011;25554;44.954;10.068;2023-06-22T09:22:36;13.60;;;6.80;;
39880;SDS011;25554;44.954;10.068;2023-06-22T09:25:03;10.55;;;7.22;;
39880;SDS011;25554;44.954;10.068;2023-06-22T09:27:30;9.00;;;7.10;;
39880;SDS011;25554;44.954;10.068;2023-06-22T09:29:56;13.48;;;6.90;;
39880;SDS011;25554;44.954;10.068;2023-06-22T09:32:24;15.57;;;8.48;;
39880;SDS011;25554;44.954;10.068;2023-06-22T09:34:51;11.95;;;8.27;;
39880;SDS011;25554;44.954;10.068;2023-06-22T09:37:18;12.90;;;8.25;;
39880;SDS011;25554;44.954;10.068;2023-06-22T09:39:45;12.13;;;7.40;;
39880;SDS011;25554;44.954;10.068;2023-06-22T09:42:12;14.45;;;7.10;;
39880;SDS011;25554;44.954;10.068;2023-06-22T09:44:39;7.65;;;6.53;;
39880;SDS011;25554;44.954;10.068;2023-06-22T09:47:05;10.68;;;6.95;;
39880;SDS011;25554;44.954;10.068;2023-06-22T09:49:32;9.43;;;7.05;;
39880;SDS011;25554;44.954;10.068;2023-06-22T09:51:59;9.13;;;7.20;;
39880;SDS011;25554;44.954;10.068;2023-06-22T09:54:25;15.82;;;7.85;;
39880;SDS011;25554;44.954;10.068;2023-06-22T09:56:52;7.82;;;6.65;;
39880;SDS011;25554;44.954;10.068;2023-06-22T09:59:18;9.23;;;7.70;;
39880;SDS011;25554;44.954;10.068;2023-06-22T10:01:45;13.48;;;7.30;;
39880;SDS011;25554;44.954;10.068;2023-06-22T10:04:12;15.02;;;7.53;;
39880;SDS011;25554;44.954;10.068;2023-06-22T10:06:38;15.90;;;8.95;;
39880;SDS011;25554;44.954;10.068;2023-06-22T10:09:07;13.77;;;8.13;;
39880;SDS011;25554;44.954;10.068;2023-06-22T10:11:34;10.50;;;7.50;;
39880;SDS011;25554;44.954;10.068;2023-06-22T10:14:01;10.23;;;7.07;;
39880;SDS011;25554;44.954;10.068;2023-06-22T10:16:32;10.23;;;7.05;;
39880;SDS011;25554;44.954;10.068;2023-06-22T10:19:01;9.80;;;7.10;;
39880;SDS011;25554;44.954;10.068;2023-06-22T10:21:27;9.43;;;8.07;;
39880;SDS011;25554;44.954;10.068;2023-06-22T10:23:54;10.95;;;7.57;;
39880;SDS011;25554;44.954;10.068;2023-06-22T10:26:21;15.95;;;8.45;;
39880;SDS011;25554;44.954;10.068;2023-06-22T10:28:48;11.30;;;7.60;;
39880;SDS011;25554;44.954;10.068;2023-06-22T10:31:14;12.02;;;7.68;;
39880;SDS011;25554;44.954;10.068;2023-06-22T10:33:42;11.10;;;7.50;;
39880;SDS011;25554;44.954;10.068;2023-06-22T10:36:10;9.75;;;8.20;;
39880;SDS011;25554;44.954;10.068;2023-06-22T10:38:37;12.18;;;8.02;;
39880;SDS011;25554;44.954;10.068;2023-06-22T10:41:04;13.18;;;8.10;;
39880;SDS011;25554;44.954;10.068;2023-06-22T10:43:31;13.15;;;8.13;;
39880;SDS011;25554;44.954;10.068;2023-06-22T10:45:57;16.58;;;8.43;;
39880;SDS011;25554;44.954;10.068;2023-06-22T10:48:24;17.73;;;8.77;;
39880;SDS011;25554;44.954;10.068;2023-06-22T10:50:50;12.98;;;8.00;;
39880;SDS011;25554;44.954;10.068;2023-06-22T10:53:18;12.90;;;7.93;;
39880;SDS011;25554;44.954;10.068;2023-06-22T10:55:45;16.65;;;7.80;;
39880;SDS011;25554;44.954;10.068;2023-06-22T10:58:12;11.55;;;7.60;;
39880;SDS011;25554;44.954;10.068;2023-06-22T11:00:38;11.50;;;7.32;;
39880;SDS011;25554;44.954;10.068;2023-06-22T11:03:05;11.93;;;7.03;;
39880;SDS011;25554;44.954;10.068;2023-06-22T11:05:32;15.90;;;8.40;;
39880;SDS011;25554;44.954;10.068;2023-06-22T11:07:58;12.82;;;7.75;;
39880;SDS011;25554;44.954;10.068;2023-06-22T11:10:25;13.05;;;7.57;;
39880;SDS011;25554;44.954;10.068;2023-06-22T11:12:52;12.02;;;7.65;;
39880;SDS011;25554;44.954;10.068;2023-06-22T11:15:19;11.25;;;7.03;;
39880;SDS011;25554;44.954;10.068;2023-06-22T11:17:45;12.10;;;7.57;;
39880;SDS011;25554;44.954;10.068;2023-06-22T11:20:12;16.50;;;7.90;;
39880;SDS011;25554;44.954;10.068;2023-06-22T11:22:39;9.18;;;6.57;;
39880;SDS011;25554;44.954;10.068;2023-06-22T11:25:06;14.15;;;7.15;;
39880;SDS011;25554;44.954;10.068;2023-06-22T11:27:32;10.00;;;6.25;;
39880;SDS011;25554;44.954;10.068;2023-06-22T11:29:59;10.70;;;6.90;;
39880;SDS011;25554;44.954;10.068;2023-06-22T11:32:26;9.98;;;6.78;;
39880;SDS011;25554;44.954;10.068;2023-06-22T11:34:52;13.00;;;7.50;;
39880;SDS011;25554;44.954;10.068;2023-06-22T11:37:19;10.55;;;7.15;;
39880;SDS011;25554;44.954;10.068;2023-06-22T11:39:46;11.13;;;6.70;;
39880;SDS011;25554;44.954;10.068;2023-06-22T11:42:12;13.13;;;7.47;;
39880;SDS011;25554;44.954;10.068;2023-06-22T11:44:39;16.45;;;6.90;;
39880;SDS011;25554;44.954;10.068;2023-06-22T11:47:06;13.73;;;8.05;;
39880;SDS011;25554;44.954;10.068;2023-06-22T11:49:32;13.82;;;7.30;;
39880;SDS011;25554;44.954;10.068;2023-06-22T11:51:59;12.38;;;7.13;;
39880;SDS011;25554;44.954;10.068;2023-06-22T11:54:25;12.00;;;7.10;;
39880;SDS011;25554;44.954;10.068;2023-06-22T11:56:52;16.92;;;8.68;;
39880;SDS011;25554;44.954;10.068;2023-06-22T11:59:19;12.05;;;7.30;;
39880;SDS011;25554;44.954;10.068;2023-06-22T12:01:47;9.15;;;6.75;;
39880;SDS011;25554;44.954;10.068;2023-06-22T12:04:16;11.40;;;7.00;;
39880;SDS011;25554;44.954;10.068;2023-06-22T12:06:43;10.75;;;7.57;;
39880;SDS011;25554;44.954;10.068;2023-06-22T12:09:10;11.93;;;7.68;;
39880;SDS011;25554;44.954;10.068;2023-06-22T12:11:39;15.27;;;7.85;;
39880;SDS011;25554;44.954;10.068;2023-06-22T12:14:05;11.57;;;7.07;;
39880;SDS011;25554;44.954;10.068;2023-06-22T12:16:32;11.02;;;6.70;;
39880;SDS011;25554;44.954;10.068;2023-06-22T12:18:58;11.40;;;6.57;;
39880;SDS011;25554;44.954;10.068;2023-06-22T12:21:25;15.35;;;7.82;;
39880;SDS011;25554;44.954;10.068;2023-06-22T12:23:52;10.85;;;7.68;;
39880;SDS011;25554;44.954;10.068;2023-06-22T12:26:18;15.68;;;6.80;;
39880;SDS011;25554;44.954;10.068;2023-06-22T12:28:45;9.52;;;7.07;;
39880;SDS011;25554;44.954;10.068;2023-06-22T12:31:11;9.88;;;6.65;;
39880;SDS011;25554;44.954;10.068;2023-06-22T12:33:38;12.20;;;7.45;;
39880;SDS011;25554;44.954;10.068;2023-06-22T12:36:04;12.38;;;6.78;;
39880;SDS011;25554;44.954;10.068;2023-06-22T12:38:31;11.88;;;6.95;;
39880;SDS011;25554;44.954;10.068;2023-06-22T12:40:58;14.43;;;6.53;;
39880;SDS011;25554;44.954;10.068;2023-06-22T12:43:24;13.85;;;6.95;;
39880;SDS011;25554;44.954;10.068;2023-06-22T12:45:51;14.25;;;6.65;;
39880;SDS011;25554;44.954;10.068;2023-06-22T12:48:19;11.38;;;6.95;;
39880;SDS011;25554;44.954;10.068;2023-06-22T12:50:45;10.18;;;6.07;;
39880;SDS011;25554;44.954;10.068;2023-06-22T12:53:13;8.00;;;6.13;;
39880;SDS011;25554;44.954;10.068;2023-06-22T12:55:40;12.52;;;6.68;;
39880;SDS011;25554;44.954;10.068;2023-06-22T12:58:06;12.15;;;7.15;;
39880;SDS011;25554;44.954;10.068;2023-06-22T13:00:33;12.10;;;6.80;;
39880;SDS011;25554;44.954;10.068;2023-06-22T13:02:59;10.80;;;7.07;;
39880;SDS011;25554;44.954;10.068;2023-06-22T13:05:26;8.98;;;6.90;;
39880;SDS011;25554;44.954;10.068;2023-06-22T13:07:52;10.07;;;6.50;;
39880;SDS011;25554;44.954;10.068;2023-06-22T13:10:19;11.13;;;6.32;;
39880;SDS011;25554;44.954;10.068;2023-06-22T13:12:45;12.15;;;6.80;;
39880;SDS011;25554;44.954;10.068;2023-06-22T13:15:12;6.90;;;5.60;;
39880;SDS011;25554;44.954;10.068;2023-06-22T13:17:38;11.20;;;5.60;;
39880;SDS011;25554;44.954;10.068;2023-06-22T13:20:05;9.77;;;5.50;;
39880;SDS011;25554;44.954;10.068;2023-06-22T13:22:32;6.93;;;5.60;;
39880;SDS011;25554;44.954;10.068;2023-06-22T13:25:06;10.80;;;5.80;;
39880;SDS011;25554;44.954;10.068;2023-06-22T13:27:32;8.65;;;5.88;;
39880;SDS011;25554;44.954;10.068;2023-06-22T13:29:59;14.00;;;5.95;;
39880;SDS011;25554;44.954;10.068;2023-06-22T13:32:25;12.73;;;6.00;;
39880;SDS011;25554;44.954;10.068;2023-06-22T13:34:52;11.73;;;6.05;;
39880;SDS011;25554;44.954;10.068;2023-06-22T13:37:19;8.98;;;6.07;;
39880;SDS011;25554;44.954;10.068;2023-06-22T13:39:45;13.55;;;6.82;;
39880;SDS011;25554;44.954;10.068;2023-06-22T13:42:12;8.23;;;6.18;;
39880;SDS011;25554;44.954;10.068;2023-06-22T13:44:39;12.05;;;6.45;;
39880;SDS011;25554;44.954;10.068;2023-06-22T13:47:06;12.10;;;6.85;;
39880;SDS011;25554;44.954;10.068;2023-06-22T13:49:32;14.90;;;7.78;;
39880;SDS011;25554;44.954;10.068;2023-06-22T13:51:59;13.13;;;6.65;;
39880;SDS011;25554;44.954;10.068;2023-06-22T13:54:26;15.60;;;7.35;;
39880;SDS011;25554;44.954;10.068;2023-06-22T13:56:52;10.43;;;7.68;;
39880;SDS011;25554;44.954;10.068;2023-06-22T13:59:19;15.50;;;7.28;;
39880;SDS011;25554;44.954;10.068;2023-06-22T14:01:46;10.57;;;7.50;;
39880;SDS011;25554;44.954;10.068;2023-06-22T14:04:13;11.55;;;7.38;;
39880;SDS011;25554;44.954;10.068;2023-06-22T14:06:39;19.00;;;7.72;;
39880;SDS011;25554;44.954;10.068;2023-06-22T14:09:06;14.40;;;7.93;;
39880;SDS011;25554;44.954;10.068;2023-06-22T14:11:32;14.35;;;7.78;;
39880;SDS011;25554;44.954;10.068;2023-06-22T14:13:59;16.80;;;8.05;;
39880;SDS011;25554;44.954;10.068;2023-06-22T14:16:26;9.45;;;7.10;;
39880;SDS011;25554;44.954;10.068;2023-06-22T14:18:52;13.15;;;7.38;;
39880;SDS011;25554;44.954;10.068;2023-06-22T14:21:19;13.50;;;7.75;;
39880;SDS011;25554;44.954;10.068;2023-06-22T14:23:46;12.07;;;7.15;;
39880;SDS011;25554;44.954;10.068;2023-06-22T14:26:15;9.73;;;6.78;;
39880;SDS011;25554;44.954;10.068;2023-06-22T14:28:45;14.02;;;7.50;;